Time;durP1;ratioP1;P1;durP2;ratioP2;P2;SDS_P1;SDS_P2;PMS_P1;PMS_P2;Temp;Humidity;BMP_temperature;BMP_pressure;BME280_temperature;BME280_humidity;BME280_pressure;Samples;Min_cycle;Max_cycle;Signal;HPM_P1;HPM_P2
2022/01/19 00:01:36;;;;;;;7.72;4.40;;;;;;;;;;5058879;28;20044;-89
2022/01/19 00:04:03;;;;;;;5.95;3.45;;;5.60;99.90;;;;;;5067140;28;20044;-85
2022/01/19 00:06:29;;;;;;;6.93;3.83;;;5.80;99.90;;;;;;5072063;28;20025;-83
2022/01/19 00:08:55;;;;;;;5.70;3.67;;;5.60;99.90;;;;;;5058845;28;20040;-86
2022/01/19 00:11:22;;;;;;;6.90;3.40;;;7.50;99.90;;;;;;5055779;28;20021;-87
2022/01/19 00:13:49;;;;;;;6.03;4.15;;;;;;;;;;5057663;28;20078;-85
2022/01/19 00:16:15;;;;;;;6.70;4.05;;;5.70;99.90;;;;;;5059702;28;20112;-81
2022/01/19 00:18:41;;;;;;;6.70;3.38;;;5.60;99.90;;;;;;5057218;28;20063;-84
2022/01/19 00:21:07;;;;;;;4.82;3.47;;;;;;;;;;5058185;28;20029;-86
2022/01/19 00:23:32;;;;;;;5.43;3.42;;;5.90;99.90;;;;;;5073212;28;20037;-84
2022/01/19 00:25:58;;;;;;;5.03;3.50;;;5.70;99.90;;;;;;5053130;28;20044;-84
2022/01/19 00:28:24;;;;;;;6.72;4.00;;;5.60;99.90;;;;;;5054789;28;20029;-87
2022/01/19 00:30:50;;;;;;;6.45;3.60;;;;;;;;;;5060513;28;20025;-86
2022/01/19 00:33:18;;;;;;;5.72;3.65;;;5.50;99.90;;;;;;5054317;28;20031;-84
2022/01/19 00:35:44;;;;;;;5.25;3.65;;;5.50;99.90;;;;;;5063874;28;20134;-88
2022/01/19 00:38:10;;;;;;;4.78;3.45;;;5.40;99.90;;;;;;5058227;28;20041;-83
2022/01/19 00:40:38;;;;;;;7.68;3.72;;;5.40;99.90;;;;;;5061565;28;20028;-86
2022/01/19 00:43:03;;;;;;;6.68;3.80;;;5.40;99.90;;;;;;5057199;28;20037;-85
2022/01/19 00:45:29;;;;;;;6.93;3.50;;;5.30;99.90;;;;;;5058044;28;20032;-86
2022/01/19 00:47:55;;;;;;;6.32;3.53;;;5.50;99.90;;;;;;5056328;28;20037;-87
2022/01/19 00:50:23;;;;;;;5.80;3.88;;;6.40;99.90;;;;;;5054116;28;20032;-82
2022/01/19 00:52:51;;;;;;;4.68;3.08;;;;;;;;;;5061107;28;20409;-84
2022/01/19 00:55:17;;;;;;;6.32;3.60;;;6.50;99.90;;;;;;5057895;28;20397;-86
2022/01/19 00:57:44;;;;;;;5.40;3.38;;;;;;;;;;5052845;28;20043;-87
2022/01/19 01:00:13;;;;;;;5.20;3.17;;;5.20;99.90;;;;;;5051670;28;20960;-84
2022/01/19 01:02:38;;;;;;;5.20;3.35;;;5.20;99.90;;;;;;5071611;28;20036;-88
2022/01/19 01:05:05;;;;;;;5.70;3.70;;;5.30;99.90;;;;;;5060878;28;20516;-84
2022/01/19 01:07:33;;;;;;;7.10;3.67;;;;;;;;;;5050256;28;20262;-84
2022/01/19 01:09:59;;;;;;;11.93;5.82;;;;;;;;;;5055918;28;20116;-84
2022/01/19 01:12:47;;;;;;;7.35;4.47;;;;;;;;;;5051495;28;20025;-86
2022/01/19 01:20:36;;;;;;;5.45;3.58;;;5.00;99.90;;;;;;5056332;28;20041;-85
2022/01/19 01:23:04;;;;;;;5.07;3.38;;;5.20;99.90;;;;;;5051001;28;20402;-83
2022/01/19 01:25:29;;;;;;;5.72;3.50;;;5.20;99.90;;;;;;5044076;28;20521;-82
2022/01/19 01:27:55;;;;;;;5.03;3.63;;;4.50;99.90;;;;;;5051069;28;20039;-86
2022/01/19 01:30:21;;;;;;;5.43;3.78;;;;;;;;;;5052172;28;20933;-82
2022/01/19 01:32:47;;;;;;;7.72;4.25;;;;;;;;;;5053126;28;20473;-85
2022/01/19 01:35:14;;;;;;;6.55;3.67;;;4.90;99.90;;;;;;5052654;28;20029;-81
2022/01/19 01:37:39;;;;;;;6.25;3.67;;;4.90;99.90;;;;;;5050029;28;20942;-87
2022/01/19 01:40:08;;;;;;;7.00;3.67;;;5.40;99.90;;;;;;5048084;28;20037;-82
2022/01/19 01:42:34;;;;;;;7.47;4.28;;;;;;;;;;5055648;28;20032;-84
2022/01/19 01:45:01;;;;;;;6.47;4.22;;;4.60;99.90;;;;;;5047624;28;20040;-81
2022/01/19 01:47:28;;;;;;;6.85;4.28;;;7.80;99.90;;;;;;5050998;28;20114;-87
2022/01/19 01:55:12;;;;;;;7.28;4.38;;;4.60;99.90;;;;;;5048127;28;20035;-85
2022/01/19 01:57:38;;;;;;;8.90;5.30;;;4.60;99.90;;;;;;5046935;28;20062;-83
2022/01/19 02:00:07;;;;;;;6.63;4.45;;;4.50;99.90;;;;;;5050418;28;20506;-81
2022/01/19 02:02:33;;;;;;;5.78;4.15;;;4.50;99.90;;;;;;5046269;28;20134;-86
2022/01/19 02:04:59;;;;;;;12.73;7.43;;;;;;;;;;5048035;28;20037;-87
2022/01/19 02:07:44;;;;;;;8.27;5.47;;;4.40;99.90;;;;;;5047751;28;20028;-87
2022/01/19 02:10:59;;;;;;;8.98;5.20;;;4.40;99.90;;;;;;5045690;28;20031;-86
2022/01/19 02:24:13;;;;;;;10.93;5.53;;;4.10;99.90;;;;;;5053310;28;20032;-82
2022/01/19 02:42:53;;;;;;;7.18;4.78;;;4.90;99.90;;;;;;5054720;28;20047;-81
2022/01/19 02:50:33;;;;;;;8.07;5.32;;;3.90;99.90;;;;;;5053607;28;20537;-83
2022/01/19 02:52:59;;;;;;;9.80;5.70;;;3.90;99.90;;;;;;5061905;28;20028;-80
2022/01/19 02:55:25;;;;;;;10.13;5.35;;;3.90;99.90;;;;;;5065336;28;20026;-83
2022/01/19 02:57:50;;;;;;;10.82;5.95;;;3.90;99.90;;;;;;5064951;28;20077;-79
2022/01/19 03:08:45;;;;;;;8.52;5.60;;;;;;;;;;5050839;28;20044;-82
2022/01/19 03:11:19;;;;;;;8.68;5.30;;;3.80;99.90;;;;;;5050267;28;20025;-82
2022/01/19 03:13:46;;;;;;;10.13;6.03;;;3.80;99.90;;;;;;5065462;28;20202;-83
2022/01/19 03:16:13;;;;;;;9.05;6.50;;;;;;;;;;5048382;28;20029;-85
2022/01/19 03:18:39;;;;;;;7.80;5.35;;;;;;;;;;5047261;28;20040;-85
2022/01/19 03:21:06;;;;;;;8.85;5.72;;;;;;;;;;5053485;28;20036;-84
2022/01/19 03:23:32;;;;;;;8.57;5.68;;;;;;;;;;5053714;28;20086;-81
2022/01/19 03:28:31;;;;;;;10.18;6.32;;;3.70;99.90;;;;;;5004637;28;20042;-84
2022/01/19 03:31:00;;;;;;;10.68;5.85;;;3.70;99.90;;;;;;5008730;28;20037;-84
2022/01/19 03:33:35;;;;;;;10.52;5.85;;;;;;;;;;5000209;28;20027;-83
2022/01/19 03:36:03;;;;;;;9.75;5.80;;;3.60;99.90;;;;;;4986104;28;20583;-83
2022/01/19 03:38:30;;;;;;;11.90;6.32;;;3.70;99.90;;;;;;4984312;28;20030;-85
2022/01/19 03:40:58;;;;;;;10.30;6.25;;;3.60;99.90;;;;;;4983497;28;20027;-82
2022/01/19 03:43:25;;;;;;;9.63;5.82;;;3.60;99.90;;;;;;4981141;28;20418;-83
2022/01/19 03:45:57;;;;;;;8.65;6.03;;;3.70;99.90;;;;;;5000407;28;20479;-84
2022/01/19 03:48:43;;;;;;;12.77;6.35;;;3.60;99.90;;;;;;4984885;28;20030;-84
2022/01/19 03:51:10;;;;;;;9.63;6.28;;;;;;;;;;4986280;28;20026;-86
2022/01/19 03:53:40;;;;;;;10.10;6.28;;;3.60;99.90;;;;;;4987886;28;20034;-82
2022/01/19 03:56:13;;;;;;;10.50;5.90;;;3.60;99.90;;;;;;4986131;28;20467;-83
2022/01/19 03:59:00;;;;;;;12.55;5.93;;;;;;;;;;4979063;28;20053;-87
2022/01/19 04:01:27;;;;;;;8.68;5.45;;;;;;;;;;5001488;28;20066;-83
2022/01/19 04:06:51;;;;;;;12.77;7.00;;;3.50;99.90;;;;;;4985712;28;20038;-85
2022/01/19 04:09:16;;;;;;;10.70;5.90;;;;;;;;;;4983550;28;20126;-82
2022/01/19 04:11:42;;;;;;;13.07;6.55;;;;;;;;;;4982383;28;20034;-85
2022/01/19 04:16:36;;;;;;;9.55;5.75;;;3.40;99.90;;;;;;4984034;28;20041;-85
2022/01/19 04:19:19;;;;;;;10.65;6.25;;;;;;;;;;4984721;28;20070;-81
2022/01/19 04:21:45;;;;;;;11.50;6.18;;;;;;;;;;4986859;28;20676;-81
2022/01/19 04:24:12;;;;;;;12.70;6.30;;;3.20;99.90;;;;;;4993385;28;20125;-79
2022/01/19 04:26:38;;;;;;;11.23;6.45;;;;;;;;;;4969586;28;20039;-79
2022/01/19 04:29:05;;;;;;;15.15;6.32;;;;;;;;;;4989017;28;20031;-82
2022/01/19 04:31:32;;;;;;;16.48;6.50;;;;;;;;;;4987420;28;20141;-81
2022/01/19 04:34:03;;;;;;;14.80;6.22;;;3.10;99.90;;;;;;4985108;28;20031;-80
2022/01/19 04:43:51;;;;;;;11.68;6.85;;;4.50;99.90;;;;;;4988418;28;20049;-81
2022/01/19 04:45:49;;;;;;;12.90;6.88;;;3.10;99.90;;;;;;4991149;28;20598;-82
2022/01/19 05:01:52;;;;;;;9.57;6.03;;;;;;;;;;4987980;28;20029;-81
2022/01/19 05:04:36;;;;;;;9.15;6.13;;;2.90;99.90;;;;;;4995185;28;20057;-80
2022/01/19 05:07:17;;;;;;;11.60;6.43;;;2.90;99.90;;;;;;4991479;28;20034;-82
2022/01/19 05:10:03;;;;;;;11.13;6.70;;;2.80;99.90;;;;;;4991710;28;20033;-81
2022/01/19 05:15:13;;;;;;;12.80;6.63;;;5.30;99.90;;;;;;4993335;28;20349;-81
2022/01/19 05:17:40;;;;;;;12.23;7.38;;;2.80;99.90;;;;;;4991224;28;20031;-79
2022/01/19 05:20:08;;;;;;;11.63;6.47;;;5.50;99.90;;;;;;4992918;28;20065;-80
2022/01/19 05:22:34;;;;;;;12.80;7.30;;;2.90;99.90;;;;;;4999081;28;20752;-83
2022/01/19 05:25:01;;;;;;;12.48;6.55;;;2.90;99.90;;;;;;4997109;28;20081;-82
2022/01/19 05:27:27;;;;;;;12.45;7.13;;;;;;;;;;4996502;28;20023;-82
2022/01/19 05:29:52;;;;;;;12.43;7.50;;;2.90;99.90;;;;;;4993644;28;20018;-86
2022/01/19 05:32:19;;;;;;;11.23;6.72;;;;;;;;;;4991891;28;20537;-81
2022/01/19 05:34:44;;;;;;;12.50;7.65;;;2.70;99.90;;;;;;4997231;28;20049;-82
2022/01/19 05:37:10;;;;;;;13.18;7.45;;;2.80;99.90;;;;;;4992355;28;20058;-81
2022/01/19 05:39:36;;;;;;;11.90;7.38;;;2.70;99.90;;;;;;4992167;28;20030;-83
2022/01/19 05:42:03;;;;;;;14.57;7.30;;;2.60;99.90;;;;;;4997147;28;20333;-82
2022/01/19 05:44:28;;;;;;;13.23;7.40;;;2.70;99.90;;;;;;4997934;28;20046;-81
2022/01/19 05:46:54;;;;;;;15.68;7.43;;;;;;;;;;4993827;28;20078;-79
2022/01/19 05:49:20;;;;;;;13.98;7.38;;;;;;;;;;4990632;28;20046;-82
2022/01/19 05:51:47;;;;;;;14.27;8.10;;;2.70;99.90;;;;;;4994852;28;20030;-81
2022/01/19 05:54:13;;;;;;;14.80;7.78;;;2.70;99.90;;;;;;4988816;28;20328;-80
2022/01/19 05:56:39;;;;;;;17.13;8.50;;;;;;;;;;4987323;28;20050;-80
2022/01/19 05:59:05;;;;;;;14.68;8.10;;;;;;;;;;5000041;28;20102;-79
2022/01/19 06:01:32;;;;;;;14.10;8.13;;;;;;;;;;4995866;28;20054;-81
2022/01/19 06:03:58;;;;;;;16.48;8.02;;;;;;;;;;5001645;28;20037;-79
2022/01/19 06:06:24;;;;;;;13.43;7.72;;;;;;;;;;4986105;28;20482;-80
2022/01/19 06:09:00;;;;;;;15.90;8.48;;;;;;;;;;4985986;28;20031;-80
2022/01/19 06:11:26;;;;;;;16.67;8.00;;;2.60;99.90;;;;;;4991506;28;20058;-81
2022/01/19 06:13:52;;;;;;;14.23;8.18;;;2.60;99.90;;;;;;4992488;28;20035;-79
2022/01/19 06:16:17;;;;;;;15.27;8.43;;;2.60;99.90;;;;;;4994158;28;20030;-79
2022/01/19 06:18:43;;;;;;;14.00;8.13;;;;;;;;;;4984648;28;20120;-79
2022/01/19 06:21:10;;;;;;;14.85;8.20;;;2.50;99.90;;;;;;5001899;28;20081;-80
2022/01/19 06:23:37;;;;;;;16.63;9.05;;;;;;;;;;4990102;28;20137;-79
2022/01/19 06:26:05;;;;;;;14.43;8.32;;;2.50;99.90;;;;;;4988358;28;20026;-79
2022/01/19 06:28:32;;;;;;;17.25;8.65;;;;;;;;;;4995691;28;20285;-84
2022/01/19 06:30:57;;;;;;;16.73;9.18;;;2.50;99.90;;;;;;4993783;28;20064;-82
2022/01/19 06:33:23;;;;;;;16.75;8.82;;;2.60;99.90;;;;;;5000464;28;20025;-80
2022/01/19 06:35:49;;;;;;;14.23;8.88;;;;;;;;;;4998575;28;20049;-80
2022/01/19 06:38:16;;;;;;;16.38;8.43;;;;;;;;;;4990877;28;20036;-81
2022/01/19 06:40:41;;;;;;;15.68;9.48;;;2.60;99.90;;;;;;4997397;28;20098;-81
2022/01/19 06:43:07;;;;;;;13.82;8.55;;;;;;;;;;4994057;28;20061;-81
2022/01/19 06:45:33;;;;;;;15.60;9.70;;;;;;;;;;4996144;28;20919;-81
2022/01/19 06:47:59;;;;;;;15.98;8.93;;;2.50;99.90;;;;;;5003819;28;20097;-80
2022/01/19 06:50:25;;;;;;;15.95;8.90;;;2.50;99.90;;;;;;4991898;28;20072;-81
2022/01/19 06:52:52;;;;;;;16.65;9.48;;;;;;;;;;5013077;28;20026;-84
2022/01/19 06:55:18;;;;;;;17.02;9.15;;;;;;;;;;4999373;28;20040;-81
2022/01/19 06:57:44;;;;;;;19.80;10.43;;;;;;;;;;5009048;28;20065;-85
2022/01/19 07:00:11;;;;;;;17.20;9.07;;;2.60;99.90;;;;;;5012581;28;20036;-82
2022/01/19 07:02:37;;;;;;;16.10;8.98;;;2.60;99.90;;;;;;4995726;28;20513;-82
2022/01/19 07:05:04;;;;;;;16.65;9.02;;;;;;;;;;5006214;28;20030;-81
2022/01/19 07:07:30;;;;;;;18.27;9.95;;;2.60;99.90;;;;;;4996149;28;20069;-81
2022/01/19 07:09:56;;;;;;;20.00;11.30;;;;;;;;;;5002538;28;20053;-82
2022/01/19 07:12:22;;;;;;;20.25;11.05;;;2.60;99.90;;;;;;5014263;28;20032;-81
2022/01/19 07:14:48;;;;;;;24.77;12.07;;;;;;;;;;4995007;28;20030;-79
2022/01/19 07:17:14;;;;;;;28.70;14.02;;;;;;;;;;4993409;28;20618;-79
2022/01/19 07:19:40;;;;;;;22.70;13.23;;;;;;;;;;5002407;28;20026;-80
2022/01/19 07:22:06;;;;;;;23.13;12.90;;;;;;;;;;4996001;28;20026;-80
2022/01/19 07:24:32;;;;;;;30.23;13.45;;;;;;;;;;5014837;28;20410;-81
2022/01/19 07:26:59;;;;;;;27.88;13.68;;;;;;;;;;5016418;28;20038;-81
2022/01/19 07:29:25;;;;;;;26.00;13.23;;;;;;;;;;5017700;28;20498;-82
2022/01/19 07:31:51;;;;;;;27.48;14.43;;;;;;;;;;4999798;28;20050;-81
2022/01/19 07:34:17;;;;;;;29.08;14.32;;;2.10;99.90;;;;;;5004587;28;20068;-79
2022/01/19 07:36:43;;;;;;;30.60;15.93;;;;;;;;;;4990159;28;20033;-82
2022/01/19 07:39:09;;;;;;;31.42;16.00;;;2.00;99.90;;;;;;4992346;28;20050;-81
2022/01/19 07:41:35;;;;;;;33.53;16.58;;;1.90;99.90;;;;;;4990770;28;20040;-79
2022/01/19 07:44:01;;;;;;;34.58;16.60;;;;;;;;;;5010656;28;20037;-81
2022/01/19 07:46:27;;;;;;;33.75;16.63;;;;;;;;;;5016233;28;20033;-80
2022/01/19 07:48:53;;;;;;;32.30;16.50;;;1.90;99.90;;;;;;4999968;28;20034;-80
2022/01/19 07:51:18;;;;;;;34.47;16.50;;;1.70;99.90;;;;;;5007198;28;21198;-77
2022/01/19 07:53:44;;;;;;;35.03;16.48;;;;;;;;;;5004636;28;20311;-78
2022/01/19 07:56:10;;;;;;;33.13;15.65;;;1.70;99.90;;;;;;4994027;28;20708;-78
2022/01/19 07:58:36;;;;;;;33.97;16.30;;;;;;;;;;5007644;28;20056;-78
2022/01/19 08:01:02;;;;;;;34.90;16.83;;;1.80;99.90;;;;;;4992501;28;20033;-81
2022/01/19 08:03:28;;;;;;;35.13;15.77;;;;;;;;;;5008240;28;20033;-78
2022/01/19 08:05:53;;;;;;;33.38;16.50;;;1.80;99.90;;;;;;4989551;28;20155;-79
2022/01/19 08:08:19;;;;;;;33.33;16.65;;;;;;;;;;5006457;28;20030;-83
2022/01/19 08:10:45;;;;;;;31.38;15.35;;;1.80;99.90;;;;;;5001833;28;20090;-80
2022/01/19 08:13:12;;;;;;;31.40;15.05;;;;;;;;;;5001313;28;20026;-81
2022/01/19 08:15:38;;;;;;;32.00;16.27;;;;;;;;;;4994827;28;20026;-78
2022/01/19 08:18:04;;;;;;;33.65;15.27;;;;;;;;;;5009686;28;20037;-80
2022/01/19 08:20:30;;;;;;;28.90;14.98;;;2.20;99.90;;;;;;5007880;28;20058;-80
2022/01/19 08:22:55;;;;;;;30.42;15.25;;;2.10;99.90;;;;;;4993982;28;20038;-81
2022/01/19 08:25:21;;;;;;;35.03;16.15;;;;;;;;;;4996045;28;20101;-79
2022/01/19 08:27:47;;;;;;;29.98;14.75;;;2.10;99.90;;;;;;4996548;28;20137;-79
2022/01/19 08:30:15;;;;;;;31.38;14.38;;;2.20;99.90;;;;;;4998855;28;20121;-79
2022/01/19 08:32:41;;;;;;;29.15;15.05;;;2.10;99.90;;;;;;5012575;28;20143;-80
2022/01/19 08:35:08;;;;;;;30.85;15.70;;;2.10;99.90;;;;;;5004513;28;20029;-78
2022/01/19 08:37:35;;;;;;;30.55;15.48;;;2.10;99.90;;;;;;5016388;28;20045;-78
2022/01/19 08:40:01;;;;;;;32.90;16.10;;;;;;;;;;4997535;28;20041;-80
2022/01/19 08:42:28;;;;;;;31.30;15.63;;;;;;;;;;4997179;28;20161;-78
2022/01/19 08:44:54;;;;;;;29.83;15.05;;;;;;;;;;4996263;28;20030;-80
2022/01/19 08:47:21;;;;;;;34.40;16.38;;;2.00;99.90;;;;;;5001083;28;20058;-82
2022/01/19 08:49:47;;;;;;;34.70;16.95;;;;;;;;;;4997397;28;20029;-81
2022/01/19 08:52:16;;;;;;;30.35;15.20;;;;;;;;;;4993581;28;20250;-77
2022/01/19 08:54:42;;;;;;;34.78;16.20;;;;;;;;;;5007804;28;20030;-80
2022/01/19 08:57:08;;;;;;;30.30;15.95;;;;;;;;;;5001246;28;20089;-80
2022/01/19 08:59:35;;;;;;;29.50;14.35;;;;;;;;;;5011244;28;20042;-80
2022/01/19 09:02:01;;;;;;;30.45;13.95;;;;;;;;;;5010838;28;20041;-78
2022/01/19 09:04:27;;;;;;;36.03;16.08;;;;;;;;;;5008103;28;20514;-78
2022/01/19 09:06:58;;;;;;;31.70;15.60;;;;;;;;;;4990366;28;20041;-81
2022/01/19 09:09:23;;;;;;;;;;;2.40;99.90;;;;;;4991941;28;20032;-79
2022/01/19 09:11:49;;;;;;;31.90;14.80;;;;;;;;;;4985131;28;19913;-82
2022/01/19 09:14:15;;;;;;;33.50;14.48;;;;;;;;;;4997907;28;20026;-80
2022/01/19 09:16:41;;;;;;;30.73;14.48;;;;;;;;;;5003654;28;20026;-80
2022/01/19 09:19:07;;;;;;;30.73;14.80;;;2.60;99.90;;;;;;5010173;28;20541;-79
2022/01/19 09:21:34;;;;;;;33.20;14.88;;;2.50;99.90;;;;;;4997584;28;20026;-81
2022/01/19 09:24:04;;;;;;;28.63;14.55;;;5.00;99.90;;;;;;5010580;28;20028;-78
2022/01/19 09:26:30;;;;;;;31.17;15.47;;;2.40;99.90;;;;;;5012885;28;20030;-79
2022/01/19 09:28:56;;;;;;;29.00;14.60;;;2.40;99.90;;;;;;4990368;28;20308;-81
2022/01/19 09:31:22;;;;;;;31.98;16.10;;;2.40;99.90;;;;;;5016241;28;20029;-81
2022/01/19 09:33:55;;;;;;;28.52;15.43;;;2.50;99.90;;;;;;5019394;28;20022;-81
2022/01/19 09:38:57;;;;;;;32.65;16.08;;;2.40;99.90;;;;;;5020190;28;20054;-82
2022/01/19 09:41:24;;;;;;;34.08;15.77;;;2.40;99.90;;;;;;5020350;28;20029;-81
2022/01/19 09:43:50;;;;;;;31.42;14.65;;;2.40;99.90;;;;;;5002165;28;20030;-80
2022/01/19 09:46:16;;;;;;;35.42;15.93;;;2.40;99.90;;;;;;5015852;28;20034;-81
2022/01/19 09:48:42;;;;;;;34.85;15.88;;;;;;;;;;5003265;28;20049;-80
2022/01/19 09:51:08;;;;;;;31.92;15.98;;;;;;;;;;5010310;28;20050;-79
2022/01/19 09:53:34;;;;;;;33.22;15.98;;;;;;;;;;5009420;28;20034;-82
2022/01/19 09:56:02;;;;;;;31.83;15.10;;;2.50;99.90;;;;;;4996965;28;20117;-82
2022/01/19 09:58:27;;;;;;;29.70;15.00;;;2.10;99.90;;;;;;4992264;28;20063;-78
2022/01/19 10:00:53;;;;;;;31.45;14.52;;;2.50;99.90;;;;;;4997206;28;20034;-82
2022/01/19 10:03:30;;;;;;;28.42;15.20;;;2.30;99.90;;;;;;5009865;28;20034;-81
2022/01/19 10:06:07;;;;;;;32.03;15.27;;;2.60;99.90;;;;;;4995510;28;20042;-82
2022/01/19 10:08:52;;;;;;;29.23;14.45;;;2.60;99.90;;;;;;5011614;28;20065;-78
2022/01/19 10:17:06;;;;;;;28.33;15.13;;;2.80;99.90;;;;;;4999351;28;20141;-82
2022/01/19 10:19:45;;;;;;;30.45;13.77;;;2.80;99.90;;;;;;4995411;28;20087;-82
2022/01/19 10:22:24;;;;;;;33.58;15.73;;;2.70;99.90;;;;;;5002264;28;20026;-82
2022/01/19 10:24:51;;;;;;;37.70;18.17;;;2.70;99.90;;;;;;5013625;28;20022;-79
2022/01/19 10:27:37;;;;;;;29.70;15.45;;;4.10;99.90;;;;;;5001191;28;20034;-82
2022/01/19 10:30:03;;;;;;;36.67;15.77;;;;;;;;;;5019508;28;20072;-81
2022/01/19 10:32:41;;;;;;;34.63;16.70;;;2.90;99.90;;;;;;5001031;28;20125;-79
2022/01/19 10:35:15;;;;;;;32.83;14.75;;;4.50;99.90;;;;;;4993862;28;20049;-82
2022/01/19 10:37:41;;;;;;;33.70;15.40;;;;;;;;;;5012457;28;20037;-82
2022/01/19 10:40:17;;;;;;;37.42;16.48;;;3.00;99.90;;;;;;5001109;28;20040;-84
2022/01/19 10:42:44;;;;;;;39.40;15.45;;;;;;;;;;5007613;28;20037;-83
2022/01/19 10:45:11;;;;;;;34.05;14.23;;;3.10;99.90;;;;;;4986911;28;20038;-83
2022/01/19 10:47:56;;;;;;;27.05;11.00;;;;;;;;;;5010111;28;20038;-79
2022/01/19 10:50:28;;;;;;;35.40;14.93;;;;;;;;;;4997399;28;20329;-80
2022/01/19 10:52:55;;;;;;;33.00;14.98;;;;;;;;;;5014357;28;20072;-82
2022/01/19 10:55:20;;;;;;;31.65;13.00;;;;;;;;;;4995446;28;20125;-79
2022/01/19 10:57:47;;;;;;;34.95;14.68;;;;;;;;;;5010626;28;20119;-81
2022/01/19 11:00:18;;;;;;;33.95;14.32;;;;;;;;;;5006017;28;20041;-81
2022/01/19 11:02:45;;;;;;;30.02;13.60;;;;;;;;;;5009977;28;20039;-80
2022/01/19 11:05:11;;;;;;;35.10;15.50;;;;;;;;;;4998434;28;20033;-78
2022/01/19 11:07:37;;;;;;;34.60;15.82;;;;;;;;;;5013417;28;20044;-79
2022/01/19 11:10:22;;;;;;;38.40;16.45;;;;;;;;;;5010120;28;20030;-80
2022/01/19 11:12:52;;;;;;;35.75;17.67;;;;;;;;;;5011909;28;20045;-80
2022/01/19 11:15:19;;;;;;;35.72;15.73;;;;;;;;;;4990877;28;20033;-81
2022/01/19 11:17:46;;;;;;;39.08;16.13;;;3.40;99.90;;;;;;5015180;28;20068;-79
2022/01/19 11:20:14;;;;;;;31.35;12.75;;;;;;;;;;5012031;28;20149;-78
2022/01/19 11:23:10;;;;;;;37.60;16.83;;;3.40;99.90;;;;;;4992961;28;20072;-82
2022/01/19 11:26:04;;;;;;;38.40;15.40;;;3.40;99.90;;;;;;5015507;28;20041;-79
2022/01/19 11:28:36;;;;;;;33.58;15.00;;;3.40;99.90;;;;;;4996698;28;20038;-81
2022/01/19 11:31:08;;;;;;;35.13;16.27;;;3.40;99.90;;;;;;5011132;28;20026;-82
2022/01/19 11:33:47;;;;;;;34.45;14.68;;;4.20;99.90;;;;;;5013289;28;20022;-81
2022/01/19 11:36:34;;;;;;;36.08;15.98;;;3.60;99.90;;;;;;5004922;28;20014;-82
2022/01/19 11:39:08;;;;;;;29.95;13.70;;;3.60;99.90;;;;;;4998042;28;20026;-81
2022/01/19 11:41:45;;;;;;;37.78;16.10;;;3.60;99.90;;;;;;5008059;28;20101;-84
2022/01/19 11:44:17;;;;;;;32.95;14.65;;;3.60;99.90;;;;;;5021888;28;20010;-79
2022/01/19 11:46:49;;;;;;;34.05;15.48;;;3.40;99.90;;;;;;5018289;28;20014;-82
2022/01/19 11:49:18;;;;;;;40.70;16.50;;;4.80;99.90;;;;;;5031478;28;20044;-81
2022/01/19 11:51:53;;;;;;;34.45;15.85;;;4.30;99.90;;;;;;5013186;28;20045;-81
2022/01/19 11:54:33;;;;;;;35.47;16.15;;;4.80;99.90;;;;;;5006795;28;20022;-81
2022/01/19 11:56:58;;;;;;;39.60;16.90;;;3.80;99.90;;;;;;5008459;28;20022;-80
2022/01/19 11:59:47;;;;;;;39.20;17.08;;;3.70;99.90;;;;;;5020994;28;20089;-81
2022/01/19 12:02:23;;;;;;;35.33;15.00;;;3.30;99.90;;;;;;4996894;28;20026;-78
2022/01/19 12:04:59;;;;;;;36.28;16.10;;;3.40;99.90;;;;;;4997129;28;20335;-81
2022/01/19 12:07:39;;;;;;;38.92;16.08;;;4.90;99.90;;;;;;5009389;28;20029;-81
2022/01/19 12:10:11;;;;;;;41.70;18.70;;;4.40;99.90;;;;;;4987027;28;20022;-82
2022/01/19 12:12:47;;;;;;;39.38;18.00;;;3.40;99.90;;;;;;5003586;28;20041;-82
2022/01/19 12:15:53;;;;;;;39.33;16.90;;;4.50;99.90;;;;;;5012995;28;20040;-82
2022/01/19 12:18:43;;;;;;;42.90;17.77;;;3.40;99.90;;;;;;5026293;28;20044;-80
2022/01/19 12:21:14;;;;;;;37.72;15.23;;;3.60;99.90;;;;;;5024568;28;20048;-78
2022/01/19 12:23:42;;;;;;;36.15;15.35;;;3.50;99.90;;;;;;5008204;28;20045;-83
2022/01/19 12:26:10;;;;;;;39.30;16.38;;;3.70;99.90;;;;;;5011676;28;20766;-81
2022/01/19 12:28:51;;;;;;;38.38;17.35;;;5.50;99.90;;;;;;5005483;28;20063;-80
2022/01/19 12:31:25;;;;;;;37.65;16.67;;;3.80;99.90;;;;;;5017432;28;20609;-79
2022/01/19 12:34:07;;;;;;;37.03;15.77;;;3.50;99.90;;;;;;5018921;28;20022;-81
2022/01/19 12:36:51;;;;;;;37.75;16.70;;;3.60;99.90;;;;;;5009897;28;20033;-78
2022/01/19 12:39:26;;;;;;;38.55;15.25;;;3.50;99.90;;;;;;5013805;28;20032;-81
2022/01/19 12:42:14;;;;;;;33.13;15.02;;;3.70;99.90;;;;;;5003716;28;20033;-82
2022/01/19 12:44:49;;;;;;;36.67;15.50;;;3.70;99.90;;;;;;5007130;28;20026;-82
2022/01/19 12:47:27;;;;;;;39.30;15.88;;;3.70;99.90;;;;;;5008739;28;20241;-82
2022/01/19 12:50:08;;;;;;;36.53;14.85;;;3.70;99.90;;;;;;5011505;28;20023;-83
2022/01/19 12:52:39;;;;;;;34.83;14.32;;;3.70;99.90;;;;;;4993343;28;20026;-83
2022/01/19 12:55:10;;;;;;;33.88;14.20;;;5.30;99.90;;;;;;5004025;28;20105;-81
2022/01/19 12:57:36;;;;;;;34.00;14.90;;;3.90;99.90;;;;;;4988913;28;20038;-81
2022/01/19 13:00:05;;;;;;;34.15;14.27;;;3.80;99.90;;;;;;5010947;28;20430;-82
2022/01/19 13:02:31;;;;;;;35.00;16.13;;;3.70;99.90;;;;;;4995137;28;20426;-83
2022/01/19 13:05:09;;;;;;;39.15;17.40;;;3.70;99.90;;;;;;4993767;28;20033;-82
2022/01/19 13:07:53;;;;;;;35.83;16.02;;;3.60;99.90;;;;;;4998494;28;20041;-82
2022/01/19 13:13:13;;;;;;;35.22;14.80;;;3.60;99.90;;;;;;5006947;28;20029;-83
2022/01/19 13:15:55;;;;;;;32.30;15.68;;;3.60;99.90;;;;;;4991562;28;20030;-78
2022/01/19 13:18:43;;;;;;;36.22;15.73;;;3.70;99.90;;;;;;5006649;28;20068;-83
2022/01/19 13:21:18;;;;;;;34.65;15.13;;;4.30;99.90;;;;;;4997570;28;20044;-81
2022/01/19 13:24:04;;;;;;;33.42;14.43;;;3.70;99.90;;;;;;5008234;28;20061;-83
2022/01/19 13:26:50;;;;;;;30.83;13.80;;;3.70;99.90;;;;;;5000287;28;20034;-80
2022/01/19 13:29:23;;;;;;;30.48;14.40;;;3.70;99.90;;;;;;5003689;28;20073;-80
2022/01/19 13:31:53;;;;;;;33.83;14.00;;;3.70;99.90;;;;;;5012050;28;20037;-80
2022/01/19 13:34:19;;;;;;;34.83;14.88;;;3.70;99.90;;;;;;5024185;28;20011;-79
2022/01/19 13:36:52;;;;;;;28.52;12.90;;;;;;;;;;5007934;28;20032;-79
2022/01/19 13:39:21;;;;;;;31.00;13.48;;;3.70;99.90;;;;;;5030707;28;20044;-78
2022/01/19 13:41:50;;;;;;;27.83;14.15;;;3.80;99.90;;;;;;5010907;28;20044;-80
2022/01/19 13:44:21;;;;;;;30.92;13.82;;;3.80;99.90;;;;;;5022628;28;20432;-81
2022/01/19 13:46:47;;;;;;;28.77;12.25;;;3.80;99.90;;;;;;5007993;28;20034;-81
2022/01/19 13:49:13;;;;;;;29.27;12.73;;;3.80;99.90;;;;;;4999528;28;20049;-82
2022/01/19 13:51:43;;;;;;;27.17;12.75;;;4.00;99.90;;;;;;4997980;28;20037;-82
2022/01/19 13:54:09;;;;;;;28.48;13.52;;;5.20;99.90;;;;;;4998309;28;20025;-81
2022/01/19 13:56:37;;;;;;;29.85;13.07;;;3.80;99.90;;;;;;5009901;28;20872;-82
2022/01/19 13:59:16;;;;;;;31.73;14.38;;;3.70;99.90;;;;;;5006869;28;20022;-82
2022/01/19 14:01:56;;;;;;;34.85;14.68;;;3.70;99.90;;;;;;5013753;28;20026;-80
2022/01/19 14:04:23;;;;;;;35.38;14.27;;;3.70;99.90;;;;;;5000194;28;20498;-85
2022/01/19 14:06:52;;;;;;;34.42;15.23;;;3.70;99.90;;;;;;5017836;28;20034;-82
2022/01/19 14:09:19;;;;;;;36.72;16.38;;;3.70;99.90;;;;;;5010771;28;20048;-83
2022/01/19 14:11:59;;;;;;;34.22;15.60;;;4.80;99.90;;;;;;4997860;28;20040;-82
2022/01/19 14:14:35;;;;;;;37.70;14.60;;;3.90;99.90;;;;;;4999191;28;20022;-81
2022/01/19 14:17:03;;;;;;;35.33;15.45;;;3.70;99.90;;;;;;5001183;28;20085;-82
2022/01/19 14:19:31;;;;;;;40.08;16.88;;;3.90;99.90;;;;;;5012735;28;20395;-83
2022/01/19 14:22:07;;;;;;;35.65;16.15;;;4.30;99.90;;;;;;5025885;28;20069;-83
2022/01/19 14:24:56;;;;;;;41.08;15.90;;;3.60;99.90;;;;;;5001224;28;20087;-83
2022/01/19 14:27:25;;;;;;;37.90;16.52;;;3.60;99.90;;;;;;5015364;28;20842;-81
2022/01/19 14:30:03;;;;;;;40.08;16.63;;;4.70;99.90;;;;;;5014370;28;20030;-83
2022/01/19 14:32:37;;;;;;;38.13;17.55;;;3.60;99.90;;;;;;5004829;28;20037;-80
2022/01/19 14:35:23;;;;;;;42.67;18.00;;;4.70;99.90;;;;;;5003765;28;20113;-79
2022/01/19 14:38:14;;;;;;;38.13;16.60;;;3.60;99.90;;;;;;5015967;28;20030;-78
2022/01/19 14:40:58;;;;;;;39.50;16.20;;;3.50;99.90;;;;;;5018381;28;20037;-84
2022/01/19 14:43:27;;;;;;;38.58;16.58;;;5.00;99.90;;;;;;4987359;28;20034;-83
2022/01/19 14:46:10;;;;;;;37.42;15.65;;;4.40;99.90;;;;;;5017021;28;20010;-85
2022/01/19 14:48:39;;;;;;;37.38;17.48;;;3.60;99.90;;;;;;5019506;28;20049;-83
2022/01/19 14:51:28;;;;;;;41.05;18.00;;;2.70;99.90;;;;;;5002405;28;20029;-81
2022/01/19 14:53:57;;;;;;;39.72;16.58;;;4.10;99.90;;;;;;5020076;28;20050;-84
2022/01/19 14:56:24;;;;;;;36.50;16.00;;;3.70;99.90;;;;;;5022761;28;21185;-80
2022/01/19 14:59:11;;;;;;;38.92;17.27;;;3.70;99.90;;;;;;5000896;28;20633;-82
2022/01/19 15:01:40;;;;;;;40.03;16.25;;;3.60;99.90;;;;;;5004925;28;20029;-82
2022/01/19 15:04:07;;;;;;;36.40;17.55;;;3.60;99.90;;;;;;5002970;28;20037;-80